Napoli Jet — IQTJ — position and weather

sailwx.info

Track history (hours):
 
Tides and Currents Weather Stations Pressure Air Temp Water Temp Dewpoint Dewpoint Depression Visibility Wind Speed Wind Dir Waves Ship Positions

Napoli Jet

Last reported at 2014-Oct-19 16:33 UTC. Time now 2014-Oct-23 01:37 UTC.
Position N 40°47' E 014°13'.

Length 41 m; draft 1.3 m.

Type: Ship. MMSI: 247051400.

Date/timePositionNaut miles runAvg speedWind from/ knotsBaromVisibWave heightAir tempDewpointWater temp
2014-Oct-19 16:33N 40°47' E 014°13'  
2014-Oct-14 12:07N 40°46' E 013°59'13 4.5
2014-Oct-14 09:09N 40°49' E 014°16'1317.3
2014-Oct-14 08:25N 40°46' E 013°60'13 0.8
2014-Oct-13 16:22N 40°50' E 014°16'0 0.3
2014-Oct-13 14:33N 40°50' E 014°15'0 0.4
2014-Oct-13 13:33N 40°50' E 014°16'14 9.6
2014-Oct-13 12:08N 40°46' E 013°59'1217.3
2014-Oct-13 11:27N 40°48' E 014°14'3 1.2
2014-Oct-13 09:19N 40°50' E 014°15'1314.0
2014-Oct-13 08:25N 40°46' E 013°60'13 0.3
2014-Oct-11 15:14N 40°50' E 014°15'1 0.3
2014-Oct-11 13:33N 40°50' E 014°16'1515.4
2014-Oct-11 12:33N 40°45' E 013°57'1110.9
2014-Oct-11 11:33N 40°47' E 014°11'5 4.5
2014-Oct-11 10:33N 40°50' E 014°15'13 0.8
2014-Oct-10 17:13N 40°46' E 013°59'1217.7
2014-Oct-10 16:33N 40°48' E 014°14'3 2.8
2014-Oct-10 15:33N 40°50' E 014°15'0 0.0
2014-Oct-10 14:32N 40°50' E 014°15'1 0.5
2014-Oct-10 13:32N 40°50' E 014°16'1410.2
2014-Oct-10 12:11N 40°46' E 013°59'915.1
2014-Oct-10 11:33N 40°47' E 014°11'5 1.0
2014-Oct-10 06:04N 40°51' E 014°16'16 1.2
2014-Oct-09 17:16N 40°45' E 013°57'1318.2
2014-Oct-09 16:34N 40°47' E 014°13'  
Track history (hours):
 
Tides and Currents Weather Stations Pressure Air Temp Water Temp Dewpoint Dewpoint Depression Visibility Wind Speed Wind Dir Waves Ship Positions

Napoli Jet

Last reported at 2014-Oct-19 16:33 UTC. Time now 2014-Oct-23 01:37 UTC.
Position N 40°47' E 014°13'.

Length 41 m; draft 1.3 m.

Type: Ship. MMSI: 247051400.

Date/timePositionNaut miles runAvg speedWind from/ knotsBaromVisibWave heightAir tempDewpointWater temp
2014-Oct-19 16:33N 40°47' E 014°13'  
2014-Oct-14 12:07N 40°46' E 013°59'13 4.5
2014-Oct-14 09:09N 40°49' E 014°16'1317.3
2014-Oct-14 08:25N 40°46' E 013°60'13 0.8
2014-Oct-13 16:22N 40°50' E 014°16'0 0.3
2014-Oct-13 14:33N 40°50' E 014°15'0 0.4
2014-Oct-13 13:33N 40°50' E 014°16'14 9.6
2014-Oct-13 12:08N 40°46' E 013°59'1217.3
2014-Oct-13 11:27N 40°48' E 014°14'3 1.2
2014-Oct-13 09:19N 40°50' E 014°15'1314.0
2014-Oct-13 08:25N 40°46' E 013°60'13 0.3
2014-Oct-11 15:14N 40°50' E 014°15'1 0.3
2014-Oct-11 13:33N 40°50' E 014°16'1515.4
2014-Oct-11 12:33N 40°45' E 013°57'1110.9
2014-Oct-11 11:33N 40°47' E 014°11'5 4.5
2014-Oct-11 10:33N 40°50' E 014°15'13 0.8
2014-Oct-10 17:13N 40°46' E 013°59'1217.7
2014-Oct-10 16:33N 40°48' E 014°14'3 2.8
2014-Oct-10 15:33N 40°50' E 014°15'0 0.0
2014-Oct-10 14:32N 40°50' E 014°15'1 0.5
2014-Oct-10 13:32N 40°50' E 014°16'1410.2
2014-Oct-10 12:11N 40°46' E 013°59'915.1
2014-Oct-10 11:33N 40°47' E 014°11'5 1.0
2014-Oct-10 06:04N 40°51' E 014°16'16 1.2
2014-Oct-09 17:16N 40°45' E 013°57'1318.2
2014-Oct-09 16:34N 40°47' E 014°13'  

Dump ship's entire track history